Helen, Maryland
Current Conditions -  °F | °C
As of 6:11 PM on Wednesday 22 Oct 2014 (Local Time) from K2W6 Reporting Station
Overcast Overcast  
Wind Chill: 52°   Ceiling: 1600
Heat Index: 52°   Visibility: 10mi
Dew Point: 48°   Wind: 9mph
Humidity: 88%   Direction: 300°WNW
Pressure: 29.91"   Gusts: NA
Location:  38.38°N, 76.72°W
Report Text: K2W6 222211Z AUTO 30008KT 10SM OVC016 11/09 A2991 RMK AO1
Loading
Personal Weather Stations






























Interactive Weather Map
Tropical Storm Tracking
New forecast layout! Learn more

10-Day Weather Forecast

Advertisements
Track Severe Weather on mobile